Time;durP1;ratioP1;P1;durP2;ratioP2;P2;SDS_P1;SDS_P2;PMS_P1;PMS_P2;Temp;Humidity;BMP_temperature;BMP_pressure;BME280_temperature;BME280_humidity;BME280_pressure;Samples;Min_cycle;Max_cycle;Signal;HPM_P1;HPM_P2
2021/06/12 00:00:51;;;;;;;10.50;9.07;;;18.80;99.90;;;;;;5033092;28;20860;-51
2021/06/12 00:03:17;;;;;;;12.27;8.80;;;18.80;99.90;;;;;;5034896;28;20584;-51
2021/06/12 00:05:45;;;;;;;8.77;7.97;;;18.80;99.90;;;;;;5033245;28;20453;-51
2021/06/12 00:08:12;;;;;;;8.10;7.30;;;18.80;99.90;;;;;;5028224;28;20454;-51
2021/06/12 00:10:40;;;;;;;14.70;8.00;;;18.80;99.90;;;;;;5017810;28;20504;-51
2021/06/12 00:13:07;;;;;;;12.73;10.00;;;18.80;99.90;;;;;;5032986;28;20488;-50
2021/06/12 00:15:35;;;;;;;9.80;8.80;;;18.80;99.90;;;;;;5033159;28;20527;-51
2021/06/12 00:18:02;;;;;;;10.17;8.10;;;18.70;99.90;;;;;;5032489;28;20449;-52
2021/06/12 00:20:34;;;;;;;11.10;7.77;;;18.60;99.90;;;;;;5032439;28;20472;-50
2021/06/12 00:23:02;;;;;;;9.47;8.27;;;18.60;99.90;;;;;;5032603;28;20952;-50
2021/06/12 00:25:29;;;;;;;10.60;8.67;;;18.50;99.90;;;;;;5032747;28;20448;-51
2021/06/12 00:27:57;;;;;;;9.57;8.13;;;18.50;99.90;;;;;;5032902;28;20522;-51
2021/06/12 00:30:24;;;;;;;8.67;7.77;;;18.50;99.90;;;;;;5033029;28;20469;-51
2021/06/12 00:32:51;;;;;;;10.43;7.67;;;18.50;99.90;;;;;;5032669;28;20489;-51
2021/06/12 00:35:17;;;;;;;9.03;8.00;;;18.50;99.90;;;;;;5032893;28;20452;-50
2021/06/12 00:37:43;;;;;;;7.83;7.03;;;18.60;99.90;;;;;;5032749;28;20981;-50
2021/06/12 00:40:15;;;;;;;9.00;7.97;;;18.60;99.90;;;;;;5032651;28;20475;-52
2021/06/12 00:43:00;;;;;;;12.80;8.50;;;18.60;99.90;;;;;;5032806;28;20452;-50
2021/06/12 00:45:30;;;;;;;10.87;8.67;;;18.50;99.90;;;;;;5032835;28;20942;-51
2021/06/12 00:47:57;;;;;;;11.00;8.53;;;18.50;99.90;;;;;;5032424;28;20448;-50
2021/06/12 00:50:30;;;;;;;9.43;8.40;;;18.50;99.90;;;;;;5032290;28;20542;-51
2021/06/12 00:52:57;;;;;;;8.93;8.00;;;18.40;99.90;;;;;;5032513;28;20488;-52
2021/06/12 00:55:25;;;;;;;9.33;8.43;;;18.40;99.90;;;;;;5032473;28;20448;-51
2021/06/12 00:57:52;;;;;;;10.27;8.67;;;18.30;99.90;;;;;;5031464;28;20444;-51
2021/06/12 01:00:20;;;;;;;11.00;9.80;;;18.30;99.90;;;;;;5032036;28;21017;-51
2021/06/12 01:02:48;;;;;;;10.40;9.20;;;18.30;99.90;;;;;;5032136;28;20448;-51
2021/06/12 01:05:16;;;;;;;10.53;9.43;;;18.20;99.90;;;;;;5032283;28;20449;-50
2021/06/12 01:07:44;;;;;;;13.63;9.50;;;18.20;99.90;;;;;;5032392;28;21004;-51
2021/06/12 01:10:13;;;;;;;12.60;9.73;;;18.10;99.90;;;;;;5032507;28;20468;-51
2021/06/12 01:12:51;;;;;;;11.03;9.87;;;18.00;99.90;;;;;;5031548;28;20484;-51
2021/06/12 01:15:18;;;;;;;12.70;9.87;;;17.90;99.90;;;;;;5031957;28;20444;-50
2021/06/12 01:17:51;;;;;;;11.30;9.60;;;17.90;99.90;;;;;;5032102;28;20547;-50
2021/06/12 01:20:57;;;;;;;11.07;9.60;;;17.90;99.90;;;;;;5032030;28;20468;-51
2021/06/12 01:24:14;;;;;;;10.83;9.00;;;17.80;99.90;;;;;;5017310;28;20519;-51
2021/06/12 01:27:00;;;;;;;9.93;8.97;;;17.80;99.90;;;;;;5031796;28;20950;-52
2021/06/12 01:29:42;;;;;;;12.43;8.60;;;17.80;99.90;;;;;;5032005;28;20449;-51
2021/06/12 01:32:12;;;;;;;11.00;8.10;;;17.60;99.90;;;;;;5031601;28;20572;-50
2021/06/12 01:34:39;;;;;;;14.20;9.00;;;17.70;99.90;;;;;;5031774;28;20441;-50
2021/06/12 01:37:10;;;;;;;10.90;9.00;;;17.60;99.90;;;;;;5031509;28;20456;-51
2021/06/12 01:39:38;;;;;;;9.80;8.47;;;17.60;99.90;;;;;;5031505;28;20453;-51
2021/06/12 01:42:07;;;;;;;10.10;8.53;;;17.60;99.90;;;;;;5031705;28;20939;-50
2021/06/12 01:44:36;;;;;;;9.30;8.10;;;17.60;99.90;;;;;;5031498;28;20448;-51
2021/06/12 01:47:04;;;;;;;9.07;8.07;;;17.50;99.90;;;;;;5031670;28;20448;-50
2021/06/12 01:49:34;;;;;;;10.10;7.80;;;17.50;99.90;;;;;;5031170;28;20445;-50
2021/06/12 01:52:01;;;;;;;9.00;7.60;;;17.60;99.90;;;;;;5031301;28;20484;-50
2021/06/12 01:54:29;;;;;;;9.73;7.97;;;17.60;99.90;;;;;;5031577;28;20451;-51
2021/06/12 01:56:58;;;;;;;9.47;8.40;;;17.60;99.90;;;;;;5031559;28;20448;-51
2021/06/12 01:59:27;;;;;;;13.43;8.83;;;17.60;99.90;;;;;;5030760;28;20449;-51
2021/06/12 02:01:56;;;;;;;11.87;8.67;;;17.60;99.90;;;;;;5031311;28;20498;-50
2021/06/12 02:04:24;;;;;;;9.23;8.33;;;17.60;99.90;;;;;;5031567;28;20518;-51
2021/06/12 02:06:52;;;;;;;10.27;8.33;;;17.70;99.90;;;;;;5031750;28;20453;-51
2021/06/12 02:09:19;;;;;;;10.00;8.90;;;17.70;99.90;;;;;;5034693;28;20444;-52
2021/06/12 02:11:46;;;;;;;13.73;8.40;;;17.70;99.90;;;;;;5033396;28;20481;-50
2021/06/12 02:14:14;;;;;;;12.23;9.20;;;17.60;99.90;;;;;;5035537;28;20444;-50
2021/06/12 02:16:42;;;;;;;10.57;9.23;;;17.60;99.90;;;;;;5035591;28;20440;-51
2021/06/12 02:19:11;;;;;;;10.30;8.53;;;17.40;99.90;;;;;;5035218;28;20452;-51
2021/06/12 02:21:38;;;;;;;10.10;8.73;;;17.40;99.90;;;;;;5034824;28;20550;-51
2021/06/12 02:24:07;;;;;;;11.40;10.20;;;17.30;99.90;;;;;;5035364;28;20828;-50
2021/06/12 02:26:39;;;;;;;10.37;9.27;;;17.30;99.90;;;;;;5026888;28;20452;-51
2021/06/12 02:29:07;;;;;;;11.13;9.37;;;17.40;99.90;;;;;;5020100;28;20810;-50
2021/06/12 02:31:40;;;;;;;10.17;8.40;;;17.40;99.90;;;;;;5034350;28;20514;-51
2021/06/12 02:34:07;;;;;;;10.87;9.77;;;17.30;99.90;;;;;;5035037;28;20456;-52
2021/06/12 02:36:33;;;;;;;11.57;10.47;;;17.30;99.90;;;;;;5034900;28;20480;-51
2021/06/12 02:39:00;;;;;;;8.10;7.30;;;17.20;99.90;;;;;;5034935;28;20459;-51
2021/06/12 02:41:29;;;;;;;9.43;8.37;;;17.30;99.90;;;;;;5034623;28;20581;-51
2021/06/12 02:43:55;;;;;;;9.63;7.73;;;17.30;99.90;;;;;;5034828;28;20448;-50
2021/06/12 02:46:29;;;;;;;8.30;7.50;;;17.20;99.90;;;;;;5035021;28;20444;-51
2021/06/12 02:48:59;;;;;;;9.90;7.40;;;17.30;99.90;;;;;;5034839;28;20444;-51
2021/06/12 02:51:28;;;;;;;10.30;7.37;;;17.40;99.90;;;;;;5034143;28;20480;-50
2021/06/12 02:53:58;;;;;;;9.27;7.83;;;17.30;99.90;;;;;;5034392;28;20463;-50
2021/06/12 02:56:31;;;;;;;10.83;7.40;;;17.20;99.90;;;;;;5034742;28;20448;-51
2021/06/12 02:59:03;;;;;;;8.27;7.40;;;17.20;99.90;;;;;;5034790;28;20456;-50
2021/06/12 03:01:30;;;;;;;9.43;7.50;;;17.20;99.90;;;;;;5025119;28;20468;-50
2021/06/12 03:03:57;;;;;;;10.07;8.27;;;17.20;99.90;;;;;;5034962;28;20456;-51
2021/06/12 03:06:26;;;;;;;12.10;8.53;;;17.20;99.90;;;;;;5034771;28;20455;-50
2021/06/12 03:08:53;;;;;;;9.10;8.10;;;17.20;99.90;;;;;;5034666;28;20455;-51
2021/06/12 03:11:22;;;;;;;9.67;8.07;;;17.10;99.90;;;;;;5033751;28;20464;-50
2021/06/12 03:13:53;;;;;;;10.33;8.60;;;17.10;99.90;;;;;;5034276;28;20570;-50
2021/06/12 03:16:21;;;;;;;11.07;8.50;;;17.10;99.90;;;;;;5034496;28;20935;-50
2021/06/12 03:18:48;;;;;;;9.77;7.90;;;17.10;99.90;;;;;;5034022;28;20448;-50
2021/06/12 03:21:19;;;;;;;12.07;8.73;;;17.10;99.90;;;;;;5033258;28;20515;-50
2021/06/12 03:23:46;;;;;;;10.17;8.30;;;17.00;99.90;;;;;;5034060;28;20444;-51
2021/06/12 03:26:13;;;;;;;10.37;8.70;;;17.00;99.90;;;;;;5034187;28;20448;-51
2021/06/12 03:28:41;;;;;;;10.47;9.30;;;16.90;99.90;;;;;;5034165;28;20821;-50
2021/06/12 03:31:09;;;;;;;10.57;9.03;;;16.80;99.90;;;;;;5033088;28;20472;-51
2021/06/12 03:33:36;;;;;;;13.60;9.17;;;16.80;99.90;;;;;;5033644;28;20487;-51
2021/06/12 03:36:04;;;;;;;11.87;8.93;;;16.80;99.90;;;;;;5033327;28;20453;-50
2021/06/12 03:38:34;;;;;;;9.63;8.33;;;16.90;99.90;;;;;;5034275;28;20449;-50
2021/06/12 03:41:03;;;;;;;9.27;7.63;;;17.00;99.90;;;;;;5033242;28;20522;-51
2021/06/12 03:43:30;;;;;;;8.80;7.90;;;17.00;99.90;;;;;;5033676;28;20444;-50
2021/06/12 03:45:59;;;;;;;10.43;8.70;;;17.00;99.90;;;;;;5033943;28;20448;-51
2021/06/12 03:48:26;;;;;;;8.93;8.03;;;17.00;99.90;;;;;;5023417;28;20454;-50
2021/06/12 03:50:55;;;;;;;11.67;7.73;;;17.00;99.90;;;;;;5027104;28;21336;-51
2021/06/12 03:53:22;;;;;;;8.60;7.70;;;16.90;99.90;;;;;;5033318;28;21006;-50
2021/06/12 03:55:57;;;;;;;11.40;8.37;;;16.90;99.90;;;;;;5033539;28;20460;-51
2021/06/12 03:58:24;;;;;;;14.83;8.40;;;16.80;99.90;;;;;;5033754;28;20498;-51
2021/06/12 04:00:50;;;;;;;8.40;7.50;;;16.80;99.90;;;;;;5032938;28;20852;-50
2021/06/12 04:03:17;;;;;;;12.30;9.07;;;16.90;99.90;;;;;;5032695;28;20459;-50
2021/06/12 04:05:45;;;;;;;9.33;7.97;;;16.90;99.90;;;;;;5033437;28;20449;-50
2021/06/12 04:08:12;;;;;;;9.77;8.23;;;17.00;99.90;;;;;;5033297;28;20548;-50
2021/06/12 04:10:38;;;;;;;10.10;8.60;;;16.90;99.90;;;;;;5033221;28;20522;-51
2021/06/12 04:13:05;;;;;;;11.10;8.53;;;16.90;99.90;;;;;;5033170;28;20574;-50
2021/06/12 04:15:31;;;;;;;11.20;9.17;;;16.90;99.90;;;;;;5030609;28;20947;-50
2021/06/12 04:18:07;;;;;;;10.57;8.70;;;16.90;99.90;;;;;;5019293;28;20454;-50
2021/06/12 04:20:34;;;;;;;10.20;9.07;;;16.90;99.90;;;;;;5021924;28;20469;-50
2021/06/12 04:23:02;;;;;;;8.90;8.00;;;17.00;99.90;;;;;;5013701;28;20488;-51
2021/06/12 04:25:29;;;;;;;10.27;8.70;;;17.20;99.90;;;;;;5013709;28;20445;-51
2021/06/12 04:27:56;;;;;;;9.20;7.87;;;17.10;99.90;;;;;;5031903;28;21083;-49
2021/06/12 04:30:23;;;;;;;9.23;8.33;;;17.00;99.90;;;;;;5024845;28;20474;-50
2021/06/12 04:32:49;;;;;;;9.20;8.10;;;17.10;99.90;;;;;;5021865;28;20480;-51
2021/06/12 04:35:16;;;;;;;11.70;7.67;;;17.30;99.90;;;;;;5013490;28;20442;-50
2021/06/12 04:37:44;;;;;;;7.87;7.07;;;17.40;99.90;;;;;;5013161;28;20511;-51
2021/06/12 04:40:13;;;;;;;11.30;8.37;;;17.40;99.90;;;;;;5013092;28;21048;-51
2021/06/12 04:42:41;;;;;;;8.07;7.27;;;17.60;99.90;;;;;;5013069;28;20935;-51
2021/06/12 04:45:09;;;;;;;8.60;7.60;;;17.60;99.90;;;;;;5030680;28;20444;-51
2021/06/12 04:47:37;;;;;;;9.03;7.97;;;17.70;99.90;;;;;;5013103;28;20457;-50
2021/06/12 04:50:05;;;;;;;13.80;9.33;;;17.80;99.90;;;;;;5017475;28;20550;-51
2021/06/12 04:52:32;;;;;;;14.33;10.60;;;17.90;99.90;;;;;;5031322;28;20476;-50
2021/06/12 04:54:59;;;;;;;10.80;8.47;;;18.00;99.90;;;;;;5031336;28;20942;-51
2021/06/12 04:57:27;;;;;;;8.33;7.50;;;18.10;99.90;;;;;;5030807;28;20441;-50
2021/06/12 04:59:53;;;;;;;9.30;7.30;;;18.40;99.90;;;;;;5015117;28;20491;-51
2021/06/12 05:02:20;;;;;;;9.27;7.07;;;18.80;99.90;;;;;;5013938;28;20441;-51
2021/06/12 05:04:46;;;;;;;9.43;7.40;;;19.20;99.90;;;;;;5021179;28;20954;-51
2021/06/12 05:07:13;;;;;;;7.63;6.83;;;19.90;99.90;;;;;;5028571;28;20445;-50
2021/06/12 05:09:39;;;;;;;7.47;6.77;;;20.40;99.90;;;;;;5027177;28;20446;-51
2021/06/12 05:12:07;;;;;;;8.47;6.90;;;21.00;99.90;;;;;;5018912;28;20482;-51
2021/06/12 05:14:35;;;;;;;7.73;7.03;;;21.70;99.90;;;;;;5013744;28;20552;-51
2021/06/12 05:17:04;;;;;;;7.63;6.50;;;22.20;99.90;;;;;;5024786;28;20457;-52
2021/06/12 05:19:31;;;;;;;7.47;6.50;;;22.50;99.90;;;;;;5014160;28;20449;-51
2021/06/12 05:21:57;;;;;;;7.27;6.57;;;22.70;99.90;;;;;;5029216;28;20528;-52
2021/06/12 05:24:24;;;;;;;8.57;6.43;;;22.60;99.90;;;;;;5031012;28;20441;-51
2021/06/12 05:26:51;;;;;;;8.20;7.47;;;22.80;99.90;;;;;;5030950;28;20449;-51
2021/06/12 05:29:17;;;;;;;7.70;7.00;;;23.30;99.90;;;;;;5030607;28;20980;-50
2021/06/12 05:31:45;;;;;;;7.47;6.67;;;23.90;99.90;;;;;;5027646;28;20476;-51
2021/06/12 05:34:11;;;;;;;6.50;6.00;;;24.30;99.90;;;;;;5026889;28;20444;-51
2021/06/12 05:36:38;;;;;;;7.07;6.37;;;24.80;99.90;;;;;;5015139;28;20826;-52
2021/06/12 05:39:06;;;;;;;7.43;5.83;;;25.30;99.90;;;;;;5012259;28;20853;-51
2021/06/12 05:41:33;;;;;;;7.20;6.60;;;25.40;99.90;;;;;;5023268;28;20468;-50
2021/06/12 05:43:59;;;;;;;6.90;6.30;;;25.70;99.90;;;;;;5021625;28;20507;-50
2021/06/12 05:46:26;;;;;;;7.10;6.50;;;25.90;99.90;;;;;;5030223;28;20440;-50
2021/06/12 05:48:54;;;;;;;6.87;6.10;;;26.20;99.90;;;;;;5030386;28;20824;-51
2021/06/12 05:51:21;;;;;;;7.20;6.50;;;26.60;99.90;;;;;;5042240;22;20497;-56
2021/06/12 05:53:47;;;;;;;11.50;6.83;;;26.60;99.90;;;;;;5022431;28;20487;-57
2021/06/12 05:56:14;;;;;;;8.63;6.50;;;26.70;99.90;;;;;;5030433;28;20449;-57
2021/06/12 05:58:40;;;;;;;8.10;7.30;;;26.60;99.90;;;;;;5030259;28;20456;-57
2021/06/12 06:01:09;;;;;;;11.10;7.13;;;26.70;99.90;;;;;;5010237;28;20469;-57
2021/06/12 06:03:35;;;;;;;8.00;7.20;;;26.80;99.90;;;;;;5008507;28;20479;-56
2021/06/12 06:06:04;;;;;;;8.93;6.53;;;26.40;99.90;;;;;;5011867;28;20453;-57
2021/06/12 06:08:31;;;;;;;8.20;5.87;;;26.30;99.90;;;;;;5012104;28;20889;-58
2021/06/12 06:10:58;;;;;;;7.60;6.50;;;27.00;99.90;;;;;;5023927;28;20468;-57
2021/06/12 06:13:24;;;;;;;7.47;6.67;;;26.50;99.90;;;;;;5029795;28;20546;-56
2021/06/12 06:15:51;;;;;;;6.50;5.90;;;26.80;99.90;;;;;;5020322;28;20457;-57
2021/06/12 06:18:18;;;;;;;6.73;6.13;;;27.00;99.90;;;;;;5019816;28;20449;-57
2021/06/12 06:20:45;;;;;;;6.43;5.93;;;27.40;99.90;;;;;;5006464;28;20531;-57
2021/06/12 06:23:13;;;;;;;6.53;5.93;;;27.60;99.60;;;;;;5024731;28;20488;-56
2021/06/12 06:25:39;;;;;;;6.53;6.00;;;27.50;99.50;;;;;;5029043;28;20453;-57
2021/06/12 06:28:06;;;;;;;6.60;6.00;;;27.70;99.00;;;;;;5009155;28;20446;-56
2021/06/12 06:30:32;;;;;;;7.17;6.57;;;27.70;98.20;;;;;;5017779;28;20460;-58
2021/06/12 06:32:59;;;;;;;8.57;6.10;;;28.10;99.60;;;;;;5020667;28;20481;-58
2021/06/12 06:35:29;;;;;;;6.90;6.30;;;28.40;96.10;;;;;;5012351;28;20454;-58
2021/06/12 06:37:56;;;;;;;6.60;6.10;;;27.80;98.50;;;;;;5017284;28;20487;-57
2021/06/12 06:40:25;;;;;;;6.50;5.97;;;28.00;98.40;;;;;;5027678;28;20453;-58
2021/06/12 06:42:52;;;;;;;7.20;6.60;;;28.20;98.20;;;;;;5010128;28;20449;-58
2021/06/12 06:45:19;;;;;;;6.07;5.47;;;28.30;96.50;;;;;;5023161;28;20452;-58
2021/06/12 06:47:45;;;;;;;6.17;5.67;;;28.70;98.20;;;;;;5009318;28;20840;-58
2021/06/12 06:50:12;;;;;;;6.37;5.77;;;29.00;97.50;;;;;;5026783;28;20973;-58
2021/06/12 06:52:39;;;;;;;6.90;6.30;;;29.20;96.70;;;;;;5027877;28;20488;-57
2021/06/12 06:55:06;;;;;;;6.90;6.30;;;29.70;95.70;;;;;;5021846;28;20462;-58
2021/06/12 06:57:34;;;;;;;6.77;6.20;;;29.50;96.20;;;;;;5004325;28;20454;-57
2021/06/12 07:00:00;;;;;;;6.67;6.07;;;30.00;95.80;;;;;;5008644;28;20450;-58
2021/06/12 07:02:27;;;;;;;6.37;5.87;;;30.00;95.30;;;;;;5012820;28;20468;-57
2021/06/12 07:04:53;;;;;;;6.80;6.30;;;30.00;95.20;;;;;;5014296;28;20460;-57
2021/06/12 07:07:20;;;;;;;7.30;6.63;;;30.00;95.50;;;;;;5018783;28;20450;-58
2021/06/12 07:09:46;;;;;;;7.72;6.22;;;30.20;94.00;;;;;;5006672;28;20458;-58
2021/06/12 07:12:13;;;;;;;6.90;6.33;;;30.40;94.70;;;;;;5013906;28;20704;-57
2021/06/12 07:14:44;;;;;;;7.50;6.90;;;30.60;94.80;;;;;;5013704;28;20454;-57
2021/06/12 07:17:10;;;;;;;6.80;6.30;;;30.70;91.90;;;;;;5013546;28;20450;-58
2021/06/12 07:19:37;;;;;;;6.70;6.10;;;30.60;94.20;;;;;;5013698;28;20848;-57
2021/06/12 07:22:04;;;;;;;6.63;6.13;;;29.80;94.20;;;;;;5013661;28;20492;-58
2021/06/12 07:24:31;;;;;;;6.87;6.27;;;29.80;93.00;;;;;;5013942;28;20446;-58
2021/06/12 07:26:58;;;;;;;6.50;5.80;;;29.10;95.70;;;;;;5013076;28;20839;-56
2021/06/12 07:29:25;;;;;;;6.90;6.30;;;29.10;93.70;;;;;;5017561;28;20835;-58
2021/06/12 07:31:54;;;;;;;7.07;6.47;;;29.60;95.50;;;;;;5028249;28;20466;-58
2021/06/12 07:34:20;;;;;;;6.30;5.80;;;29.90;94.30;;;;;;5015043;28;20905;-57
2021/06/12 07:36:47;;;;;;;7.20;6.60;;;29.90;91.70;;;;;;5015228;28;20465;-57
2021/06/12 07:39:13;;;;;;;6.23;5.73;;;30.00;93.80;;;;;;5014332;28;20487;-58
2021/06/12 07:41:40;;;;;;;6.47;5.97;;;29.90;92.90;;;;;;5021677;28;20469;-57
2021/06/12 07:44:08;;;;;;;6.10;5.60;;;30.00;93.20;;;;;;5031587;28;20461;-57
2021/06/12 07:46:35;;;;;;;6.37;5.77;;;29.80;93.20;;;;;;5017538;28;20446;-57
2021/06/12 07:49:04;;;;;;;6.33;5.83;;;30.10;91.80;;;;;;5013399;28;20457;-57
2021/06/12 07:51:34;;;;;;;5.73;5.23;;;30.10;94.00;;;;;;5012463;28;20568;-57
2021/06/12 07:54:01;;;;;;;6.17;5.67;;;30.30;91.60;;;;;;5013119;28;20485;-56
2021/06/12 07:56:31;;;;;;;7.07;6.47;;;30.20;93.00;;;;;;5013091;28;20449;-56
2021/06/12 07:58:58;;;;;;;6.23;5.73;;;29.90;94.00;;;;;;5012675;28;21020;-57
2021/06/12 08:01:29;;;;;;;7.60;6.20;;;29.90;91.50;;;;;;5014192;28;20465;-57
2021/06/12 08:03:55;;;;;;;10.10;6.47;;;30.00;93.30;;;;;;5031306;28;20441;-58
2021/06/12 08:06:27;;;;;;;6.57;6.07;;;30.10;91.20;;;;;;5020938;28;20462;-58
2021/06/12 08:08:53;;;;;;;6.50;5.90;;;29.90;91.80;;;;;;5013059;28;20446;-57
2021/06/12 08:11:20;;;;;;;6.67;6.03;;;30.00;92.30;;;;;;5012447;28;20469;-57
2021/06/12 08:13:46;;;;;;;6.73;6.07;;;30.00;93.30;;;;;;5012656;28;21025;-57
2021/06/12 08:16:13;;;;;;;9.07;6.90;;;30.10;90.90;;;;;;5012103;28;20958;-57
2021/06/12 08:18:39;;;;;;;8.03;5.70;;;30.10;88.10;;;;;;5012951;28;20516;-57
2021/06/12 08:21:06;;;;;;;6.63;6.10;;;30.10;90.80;;;;;;5024027;28;21013;-57
2021/06/12 08:23:34;;;;;;;6.40;5.90;;;30.00;88.60;;;;;;5018510;28;20951;-58
2021/06/12 08:26:00;;;;;;;7.67;5.73;;;30.60;87.60;;;;;;5008894;28;20511;-57
2021/06/12 08:28:27;;;;;;;7.40;6.70;;;30.40;92.90;;;;;;5012801;28;20628;-57
2021/06/12 08:30:53;;;;;;;7.90;7.30;;;30.80;91.70;;;;;;5012545;28;20470;-58
2021/06/12 08:33:20;;;;;;;6.37;5.87;;;31.10;88.10;;;;;;5012825;28;20485;-58
2021/06/12 08:35:46;;;;;;;7.33;6.70;;;31.50;91.60;;;;;;5011671;28;20456;-58
2021/06/12 08:38:13;;;;;;;7.57;6.87;;;30.10;91.80;;;;;;5022422;28;20442;-58
2021/06/12 08:40:41;;;;;;;7.87;7.10;;;29.70;90.80;;;;;;5028923;28;20464;-57
2021/06/12 08:43:07;;;;;;;7.73;6.97;;;30.10;91.40;;;;;;5030649;28;20515;-57
2021/06/12 08:45:35;;;;;;;6.80;6.30;;;30.80;91.40;;;;;;5007784;28;21059;-58
2021/06/12 08:48:03;;;;;;;6.50;5.90;;;31.40;88.80;;;;;;5012201;28;21118;-58
2021/06/12 08:50:30;;;;;;;6.70;6.20;;;32.10;90.00;;;;;;5012167;28;20454;-57
2021/06/12 08:52:58;;;;;;;6.00;5.50;;;31.90;88.00;;;;;;5014256;28;20483;-57
2021/06/12 08:55:25;;;;;;;5.90;5.50;;;32.00;88.60;;;;;;5015562;28;20445;-59
2021/06/12 08:57:54;;;;;;;6.63;6.13;;;32.10;86.20;;;;;;5012140;28;20452;-57
2021/06/12 09:00:22;;;;;;;7.50;6.80;;;32.50;84.40;;;;;;5011813;28;20452;-58
2021/06/12 09:03:09;;;;;;;6.43;5.93;;;32.60;85.10;;;;;;5009003;28;20449;-58
2021/06/12 09:05:42;;;;;;;6.70;6.20;;;32.90;84.10;;;;;;5010851;28;20455;-57
2021/06/12 09:08:10;;;;;;;6.33;5.70;;;32.90;85.20;;;;;;5012015;28;20441;-57
2021/06/12 09:10:51;;;;;;;6.63;6.03;;;32.80;81.00;;;;;;5011554;28;20454;-58
2021/06/12 09:13:42;;;;;;;6.00;5.60;;;33.30;78.30;;;;;;5011004;28;20508;-59
2021/06/12 09:16:21;;;;;;;6.60;6.00;;;33.20;86.80;;;;;;5008746;28;20457;-58
2021/06/12 09:18:48;;;;;;;7.90;7.30;;;32.90;79.90;;;;;;5010681;28;20442;-58
2021/06/12 09:21:24;;;;;;;6.53;6.00;;;31.60;84.80;;;;;;5029730;28;20473;-57
2021/06/12 09:23:52;;;;;;;6.50;5.97;;;31.90;85.30;;;;;;5007995;28;20464;-58
2021/06/12 09:26:23;;;;;;;8.77;7.27;;;30.60;89.60;;;;;;5011355;28;20472;-59
2021/06/12 09:28:53;;;;;;;7.90;6.80;;;30.30;89.90;;;;;;5016439;28;20442;-57
2021/06/12 09:31:22;;;;;;;6.90;6.40;;;30.50;90.60;;;;;;5017082;28;20470;-58
2021/06/12 09:33:49;;;;;;;8.00;7.10;;;30.80;92.60;;;;;;5016277;28;20484;-58
2021/06/12 09:36:16;;;;;;;6.93;6.33;;;31.50;91.50;;;;;;5010277;28;20453;-57
2021/06/12 09:38:43;;;;;;;6.87;6.27;;;31.80;88.50;;;;;;5017263;28;20448;-58
2021/06/12 09:41:27;;;;;;;7.47;6.53;;;32.00;90.00;;;;;;5030653;28;20480;-58
2021/06/12 09:43:55;;;;;;;10.07;7.87;;;31.80;91.30;;;;;;5010906;28;20450;-58
2021/06/12 09:46:45;;;;;;;9.77;8.87;;;31.80;87.90;;;;;;5011985;28;20441;-58
2021/06/12 09:49:16;;;;;;;10.00;9.10;;;31.00;91.70;;;;;;5008142;28;20461;-57
2021/06/12 09:52:01;;;;;;;11.07;9.97;;;30.00;95.40;;;;;;5010984;28;20473;-58
2021/06/12 09:54:41;;;;;;;10.43;9.53;;;29.70;94.70;;;;;;5012192;28;20567;-58
2021/06/12 09:57:10;;;;;;;10.30;9.40;;;30.10;92.80;;;;;;5011726;28;20445;-57
2021/06/12 09:59:44;;;;;;;9.33;8.47;;;30.50;94.60;;;;;;5008136;28;20458;-59
2021/06/12 10:02:11;;;;;;;9.83;9.03;;;31.20;92.10;;;;;;5013332;28;21226;-59
2021/06/12 10:04:56;;;;;;;9.70;8.90;;;31.30;91.30;;;;;;5011955;28;20519;-58
2021/06/12 10:07:23;;;;;;;10.10;9.30;;;31.80;91.70;;;;;;5007944;28;20456;-58
2021/06/12 10:09:51;;;;;;;10.77;9.87;;;32.10;93.60;;;;;;5012068;28;20469;-57
2021/06/12 10:12:18;;;;;;;10.50;9.50;;;32.00;90.90;;;;;;5011107;28;21033;-58
2021/06/12 10:14:47;;;;;;;10.43;9.50;;;31.60;91.80;;;;;;5011885;28;20450;-57
2021/06/12 10:17:14;;;;;;;11.03;10.13;;;31.20;91.60;;;;;;5018872;28;20448;-57
2021/06/12 10:19:42;;;;;;;10.70;9.70;;;30.90;92.70;;;;;;5031150;28;20458;-57
2021/06/12 10:22:09;;;;;;;10.50;9.60;;;30.30;95.40;;;;;;5024570;28;20496;-58
2021/06/12 10:24:37;;;;;;;11.50;10.57;;;30.70;93.20;;;;;;5007670;28;20441;-58
2021/06/12 10:27:05;;;;;;;10.80;9.80;;;31.50;92.70;;;;;;5012360;28;20449;-58
2021/06/12 10:29:32;;;;;;;10.70;9.80;;;31.90;90.40;;;;;;5015710;28;20892;-59
2021/06/12 10:32:01;;;;;;;10.40;9.57;;;32.30;91.00;;;;;;5029877;28;20467;-58
2021/06/12 10:34:29;;;;;;;11.03;10.13;;;31.50;92.00;;;;;;5014888;28;20488;-58
2021/06/12 10:37:00;;;;;;;10.97;9.90;;;31.50;92.30;;;;;;5014795;28;20455;-59
2021/06/12 10:39:28;;;;;;;10.67;9.67;;;31.10;93.00;;;;;;5014844;28;20441;-58
2021/06/12 10:42:24;;;;;;;11.20;10.20;;;30.90;91.90;;;;;;5022893;28;20469;-57
2021/06/12 10:44:52;;;;;;;10.85;9.13;;;30.60;93.30;;;;;;4949589;28;20432;-57
2021/06/12 10:47:38;;;;;;;9.20;8.40;;;31.30;90.90;;;;;;4998674;28;20203;-56
2021/06/12 10:50:30;;;;;;;8.93;8.13;;;31.60;91.00;;;;;;5010962;28;20476;-57
2021/06/12 10:53:16;;;;;;;8.90;8.10;;;31.70;92.80;;;;;;5021915;28;20507;-57
2021/06/12 10:55:44;;;;;;;9.13;8.33;;;31.70;90.50;;;;;;5018551;28;20454;-57
2021/06/12 10:58:46;;;;;;;9.23;8.43;;;31.60;91.60;;;;;;5014355;28;20449;-57
2021/06/12 11:01:16;;;;;;;8.80;7.97;;;31.10;93.90;;;;;;5014161;28;20457;-57
2021/06/12 11:03:50;;;;;;;8.60;7.90;;;30.90;91.00;;;;;;5018796;28;20494;-57
2021/06/12 11:09:34;;;;;;;8.87;8.17;;;30.30;92.30;;;;;;5014405;28;20962;-58
2021/06/12 11:12:02;;;;;;;9.17;8.37;;;29.90;92.70;;;;;;5028786;28;20543;-57
2021/06/12 11:14:31;;;;;;;8.67;7.97;;;29.80;95.10;;;;;;5022951;28;20487;-57
2021/06/12 11:17:18;;;;;;;9.17;8.27;;;29.90;92.50;;;;;;5018985;28;21139;-57
2021/06/12 11:19:48;;;;;;;8.53;7.73;;;30.10;90.80;;;;;;5030457;28;20448;-57
2021/06/12 11:22:32;;;;;;;8.43;7.80;;;30.20;92.00;;;;;;4994937;28;20556;-56
2021/06/12 11:25:02;;;;;;;8.73;7.80;;;30.40;90.70;;;;;;5003673;28;20959;-58
2021/06/12 11:27:30;;;;;;;8.33;7.50;;;30.10;90.20;;;;;;5006201;28;20458;-56
2021/06/12 11:30:11;;;;;;;8.87;8.03;;;29.50;92.40;;;;;;4995614;28;20842;-57
2021/06/12 11:32:38;;;;;;;8.60;7.80;;;28.70;92.70;;;;;;4995298;28;20478;-57
2021/06/12 11:35:07;;;;;;;8.17;7.57;;;28.70;94.00;;;;;;5014151;28;20449;-58
2021/06/12 11:37:34;;;;;;;7.60;7.00;;;29.00;93.50;;;;;;5011104;28;20453;-56
2021/06/12 11:40:02;;;;;;;9.13;7.73;;;29.20;95.40;;;;;;5012815;28;20454;-57
2021/06/12 11:42:45;;;;;;;8.30;7.60;;;29.00;94.60;;;;;;5012024;28;20478;-57
2021/06/12 11:45:20;;;;;;;8.50;7.80;;;29.00;93.30;;;;;;5011533;28;20445;-57
2021/06/12 11:47:47;;;;;;;8.43;7.60;;;28.90;93.00;;;;;;5014015;28;20456;-57
2021/06/12 11:50:15;;;;;;;7.50;6.80;;;29.10;92.10;;;;;;5014254;28;20449;-57
2021/06/12 11:52:44;;;;;;;7.13;6.53;;;29.30;91.30;;;;;;5010537;28;20508;-56
2021/06/12 11:55:15;;;;;;;7.37;6.67;;;29.30;86.80;;;;;;4998755;28;20456;-56
2021/06/12 11:57:43;;;;;;;7.50;7.00;;;29.40;91.30;;;;;;5012198;28;20815;-57
2021/06/12 12:00:25;;;;;;;7.97;7.30;;;29.30;91.70;;;;;;5013727;28;20449;-56
2021/06/12 12:03:00;;;;;;;7.67;6.97;;;29.30;90.10;;;;;;5009159;28;20446;-57
2021/06/12 12:05:32;;;;;;;6.90;6.40;;;29.20;87.60;;;;;;5041030;22;20493;-51
2021/06/12 12:07:59;;;;;;;6.80;6.30;;;29.30;85.80;;;;;;5020784;28;20453;-50
2021/06/12 12:10:27;;;;;;;6.00;5.60;;;29.60;82.50;;;;;;5022614;28;20933;-51
2021/06/12 12:12:54;;;;;;;6.67;6.07;;;29.50;80.60;;;;;;5030196;28;20958;-51
2021/06/12 12:15:41;;;;;;;6.00;5.50;;;29.50;84.80;;;;;;5030181;28;20464;-52
2021/06/12 12:18:09;;;;;;;6.90;6.40;;;29.20;83.50;;;;;;5021541;28;20511;-51
2021/06/12 12:20:43;;;;;;;6.30;5.77;;;28.70;90.70;;;;;;5010999;28;20472;-52
2021/06/12 12:23:24;;;;;;;6.60;6.10;;;28.90;84.50;;;;;;5025702;28;20445;-51
2021/06/12 12:25:54;;;;;;;6.07;5.63;;;29.40;83.60;;;;;;5027468;28;20468;-51
2021/06/12 12:28:22;;;;;;;7.00;6.30;;;29.30;81.60;;;;;;5028778;28;20440;-51
2021/06/12 12:30:49;;;;;;;6.50;6.00;;;29.20;83.80;;;;;;5024878;28;20512;-52
2021/06/12 12:33:17;;;;;;;6.73;6.23;;;29.20;85.20;;;;;;5011708;28;20485;-52
2021/06/12 12:35:46;;;;;;;7.17;6.67;;;29.40;86.10;;;;;;5027215;28;20560;-51
2021/06/12 12:38:19;;;;;;;8.10;6.63;;;29.40;90.20;;;;;;5032361;28;20452;-52
2021/06/12 12:40:48;;;;;;;7.00;6.40;;;29.00;90.00;;;;;;5032638;28;21345;-52
2021/06/12 12:43:18;;;;;;;7.40;6.80;;;28.70;91.80;;;;;;5032599;28;20456;-52
2021/06/12 12:45:45;;;;;;;7.30;6.70;;;28.20;91.20;;;;;;5032094;28;20476;-52
2021/06/12 12:48:14;;;;;;;6.87;6.33;;;27.80;90.60;;;;;;5033076;28;20449;-51
2021/06/12 12:50:41;;;;;;;6.67;6.17;;;27.60;90.40;;;;;;5032797;28;20444;-51
2021/06/12 12:53:10;;;;;;;7.57;6.80;;;27.60;91.30;;;;;;5031727;28;20998;-51
2021/06/12 12:55:38;;;;;;;7.10;6.60;;;27.80;91.80;;;;;;5031948;28;20468;-51
2021/06/12 12:58:06;;;;;;;7.07;6.47;;;28.00;92.00;;;;;;5014022;28;20951;-52